Time;durP1;ratioP1;P1;durP2;ratioP2;P2;SDS_P1;SDS_P2;PMS_P1;PMS_P2;Temp;Humidity;BMP_temperature;BMP_pressure;BME280_temperature;BME280_humidity;BME280_pressure;Samples;Min_cycle;Max_cycle;Signal;HPM_P1;HPM_P2
2021/06/12 00:00:20;;;;;;;19.55;9.63;;;19.40;99.90;;;19.72;79.93;101817.69;5095910;28;20058;-66
2021/06/12 00:02:49;;;;;;;17.90;9.63;;;19.30;99.90;;;19.55;79.99;101777.88;5113994;28;20556;-67
2021/06/12 00:05:17;;;;;;;19.88;10.82;;;19.30;99.90;;;19.84;79.86;101816.50;5095782;28;20040;-66
2021/06/12 00:07:46;;;;;;;20.52;10.32;;;19.40;99.90;;;19.84;79.71;101822.72;5113874;28;20085;-67
2021/06/12 00:10:22;;;;;;;18.73;11.13;;;19.40;99.90;;;19.76;80.11;101814.00;5114133;28;20051;-66
2021/06/12 00:12:51;;;;;;;20.80;10.57;;;19.40;99.90;;;19.84;80.21;101822.72;5095696;28;20052;-67
2021/06/12 00:15:22;;;;;;;16.08;9.82;;;19.40;99.90;;;19.92;79.91;101815.34;5095634;28;20460;-67
2021/06/12 00:17:50;;;;;;;19.38;10.35;;;19.40;99.90;;;19.92;79.81;101820.72;5113964;28;20097;-66
2021/06/12 00:20:22;;;;;;;18.77;9.95;;;19.50;99.90;;;19.89;80.01;101815.44;5114166;28;20047;-67
2021/06/12 00:22:50;;;;;;;21.65;10.77;;;19.50;99.90;;;19.98;79.95;101815.16;5113595;28;20051;-67
2021/06/12 00:25:23;;;;;;;21.70;10.45;;;19.50;99.90;;;19.80;80.08;101791.53;5113414;28;20489;-67
2021/06/12 00:27:52;;;;;;;20.20;10.07;;;19.50;99.90;;;19.23;79.96;101689.28;5113847;28;20101;-67
2021/06/12 00:30:21;;;;;;;20.67;10.98;;;19.50;99.90;;;19.92;80.12;101811.78;5113474;28;20477;-67
2021/06/12 00:32:49;;;;;;;19.20;10.40;;;19.50;99.90;;;19.96;80.01;101808.06;5113475;28;20400;-66
2021/06/12 00:35:17;;;;;;;19.08;10.70;;;19.50;99.90;;;19.87;80.26;101802.97;5113680;28;20048;-67
2021/06/12 00:37:45;;;;;;;19.42;10.90;;;19.50;99.90;;;19.88;80.23;101794.00;5113316;28;20042;-67
2021/06/12 00:40:15;;;;;;;19.00;10.38;;;19.50;99.90;;;19.79;80.33;101808.53;5113519;28;20397;-67
2021/06/12 00:42:46;;;;;;;17.33;10.15;;;19.50;99.90;;;19.88;80.58;101810.13;5113534;28;20039;-67
2021/06/12 00:45:18;;;;;;;;;;;19.50;99.90;;;20.01;80.09;101819.59;5095628;28;20409;-67
2021/06/12 00:47:47;;;;;;;22.17;10.10;;;19.60;99.90;;;19.70;80.29;101790.88;5113160;28;20017;-67
2021/06/12 00:50:16;;;;;;;20.83;10.43;;;19.50;99.90;;;19.80;80.47;101815.69;5113054;28;20515;-67
2021/06/12 00:52:45;;;;;;;17.70;10.43;;;19.50;99.90;;;19.91;80.68;101828.81;5094987;28;20044;-67
2021/06/12 00:55:15;;;;;;;18.83;10.52;;;19.40;99.90;;;20.02;80.27;101821.34;5094686;28;20064;-66
2021/06/12 00:57:45;;;;;;;23.05;10.88;;;19.60;99.90;;;20.10;79.93;101828.25;5113050;28;20079;-67
2021/06/12 01:00:16;;;;;;;23.23;10.90;;;19.60;99.90;;;19.80;79.93;101772.72;5113298;28;20413;-67
2021/06/12 01:02:45;;;;;;;15.13;9.90;;;19.70;99.90;;;20.19;79.61;101822.66;5113172;28;20058;-67
2021/06/12 01:05:15;;;;;;;18.27;9.60;;;19.70;99.90;;;20.17;79.51;101829.84;5113142;28;20481;-66
2021/06/12 01:07:44;;;;;;;16.85;10.30;;;19.70;99.90;;;20.05;79.82;101816.78;5094675;28;20143;-66
2021/06/12 01:10:17;;;;;;;17.92;9.55;;;19.70;99.90;;;20.14;79.92;101816.50;5094748;28;20516;-67
2021/06/12 01:13:08;;;;;;;21.65;10.10;;;19.70;99.90;;;20.12;79.78;101815.66;5094748;28;20098;-67
2021/06/12 01:15:49;;;;;;;18.23;9.73;;;19.70;99.90;;;19.60;79.71;101718.69;5113049;28;20067;-67
2021/06/12 01:18:18;;;;;;;;;;;19.70;99.90;;;20.08;79.97;101822.06;5113260;28;20370;-67
2021/06/12 01:21:10;;;;;;;21.30;9.45;;;19.70;99.90;;;20.06;79.82;101829.28;5112751;28;19924;-66
2021/06/12 01:24:15;;;;;;;16.70;9.25;;;19.70;99.90;;;20.01;79.65;101825.84;5112902;28;20052;-67
2021/06/12 01:27:08;;;;;;;19.45;9.25;;;19.60;99.90;;;19.93;79.80;101822.50;5112786;28;20120;-67
2021/06/12 01:29:58;;;;;;;20.63;9.90;;;19.60;99.90;;;19.82;80.21;101819.22;5094478;28;20096;-67
2021/06/12 01:32:28;;;;;;;20.65;9.88;;;19.50;99.90;;;19.98;79.96;101830.41;5112666;28;20051;-67
2021/06/12 01:34:59;;;;;;;16.77;9.50;;;19.50;99.90;;;20.03;79.79;101829.38;5112855;28;20126;-66
2021/06/12 01:37:27;;;;;;;16.38;9.48;;;19.60;99.90;;;20.01;79.88;101817.78;5112605;28;20052;-66
2021/06/12 01:39:58;;;;;;;18.85;10.35;;;19.60;99.90;;;20.00;79.52;101805.25;5112467;28;20049;-67
2021/06/12 01:42:27;;;;;;;20.60;10.82;;;19.60;99.90;;;20.04;79.30;101804.25;5094412;28;20039;-67
2021/06/12 01:44:59;;;;;;;17.60;9.80;;;19.70;99.90;;;20.11;79.04;101810.34;5112646;28;20285;-67
2021/06/12 01:47:28;;;;;;;21.02;10.68;;;19.70;99.90;;;20.00;79.03;101807.94;5112696;28;20044;-67
2021/06/12 01:49:57;;;;;;;20.80;10.45;;;19.60;99.90;;;19.96;79.25;101817.00;5115567;28;20569;-67
2021/06/12 01:52:28;;;;;;;21.80;10.90;;;19.60;99.90;;;20.00;79.00;101809.75;5116498;28;20044;-67
2021/06/12 01:54:57;;;;;;;18.70;11.63;;;19.60;99.90;;;19.97;78.83;101796.41;5116221;28;20051;-67
2021/06/12 01:57:26;;;;;;;18.65;11.43;;;19.70;99.90;;;20.03;78.34;101807.88;5116422;28;20060;-67
2021/06/12 01:59:59;;;;;;;23.23;11.65;;;19.60;99.90;;;19.94;78.75;101808.13;5098284;28;20044;-67
2021/06/12 02:02:27;;;;;;;22.02;12.50;;;19.60;99.90;;;19.77;79.25;101805.91;5116464;28;20096;-67
2021/06/12 02:04:57;;;;;;;19.90;11.93;;;19.40;99.90;;;19.76;79.39;101805.97;5116581;28;20036;-67
2021/06/12 02:07:25;;;;;;;20.40;12.40;;;19.40;99.90;;;19.83;79.18;101802.16;5116524;28;20063;-67
2021/06/12 02:09:54;;;;;;;21.08;12.88;;;19.40;99.90;;;19.72;79.99;101801.59;5116427;28;20044;-67
2021/06/12 02:12:23;;;;;;;18.60;12.70;;;19.30;99.90;;;19.63;79.69;101797.34;5115977;28;20059;-67
2021/06/12 02:14:51;;;;;;;18.85;12.02;;;19.30;99.90;;;19.73;79.57;101800.66;5116368;28;20097;-66
2021/06/12 02:17:21;;;;;;;21.83;13.43;;;19.40;99.90;;;19.67;80.04;101795.44;5115998;28;20104;-67
2021/06/12 02:19:50;;;;;;;19.38;12.85;;;19.30;99.90;;;19.76;79.58;101797.91;5115893;28;20065;-67
2021/06/12 02:22:18;;;;;;;19.88;13.10;;;19.40;99.90;;;19.84;79.39;101792.31;5115882;28;20051;-67
2021/06/12 02:24:46;;;;;;;21.17;13.27;;;19.40;99.90;;;19.75;78.95;101797.00;5115814;28;20059;-67
2021/06/12 02:27:18;;;;;;;19.83;12.52;;;19.40;99.90;;;19.71;78.90;101772.97;5116257;28;20047;-67
2021/06/12 02:29:47;;;;;;;20.17;13.32;;;19.50;99.90;;;19.74;78.83;101800.59;5115794;28;20458;-67
2021/06/12 02:32:18;;;;;;;18.88;12.23;;;19.40;99.90;;;19.65;79.45;101791.91;5116038;28;20071;-67
2021/06/12 02:34:47;;;;;;;16.42;11.52;;;19.40;99.90;;;19.82;79.51;101796.84;5097626;28;20469;-67
2021/06/12 02:37:16;;;;;;;16.10;11.65;;;19.40;99.90;;;19.78;79.17;101793.38;5097465;28;20429;-67
2021/06/12 02:39:44;;;;;;;17.17;11.30;;;19.40;99.90;;;19.82;78.99;101802.22;5115824;28;20048;-67
2021/06/12 02:42:12;;;;;;;16.33;11.20;;;19.40;99.90;;;19.75;79.38;101793.44;5115850;28;20127;-66
2021/06/12 02:44:39;;;;;;;15.85;11.30;;;19.40;99.90;;;19.83;79.10;101794.13;5115366;28;20039;-67
2021/06/12 02:47:12;;;;;;;16.83;11.43;;;19.50;99.90;;;19.84;79.32;101798.53;5115458;28;20051;-66
2021/06/12 02:49:41;;;;;;;12.70;10.60;;;19.50;99.90;;;19.83;79.07;101787.84;5115724;28;20048;-67
2021/06/12 02:52:22;;;;;;;13.85;10.82;;;19.50;99.90;;;19.63;80.04;101805.38;5115593;28;20131;-67
2021/06/12 02:54:51;;;;;;;17.70;11.02;;;19.30;99.90;;;19.60;80.09;101805.50;5097087;28;20400;-66
2021/06/12 02:57:20;;;;;;;15.98;10.27;;;19.30;99.90;;;19.28;80.79;101766.97;5115689;28;20047;-67
2021/06/12 02:59:51;;;;;;;19.45;10.77;;;19.10;99.90;;;19.51;80.75;101794.97;5114367;28;20039;-67
2021/06/12 03:02:21;;;;;;;15.43;10.68;;;19.10;99.90;;;19.48;80.62;101799.53;5096892;28;20508;-67
2021/06/12 03:04:50;;;;;;;;;;;19.10;99.90;;;19.42;79.90;101803.28;5115818;28;20089;-66
2021/06/12 03:07:22;;;;;;;17.02;10.07;;;19.10;99.90;;;19.34;80.66;101799.91;5115304;28;19919;-67
2021/06/12 03:09:51;;;;;;;14.98;10.23;;;19.00;99.90;;;19.15;81.22;101774.44;5096932;28;20051;-66
2021/06/12 03:12:21;;;;;;;14.60;10.60;;;19.00;99.90;;;19.15;81.54;101811.09;5096881;28;20473;-67
2021/06/12 03:14:50;;;;;;;16.02;10.60;;;19.00;99.90;;;19.24;81.53;101821.63;5115536;28;20039;-67
2021/06/12 03:17:18;;;;;;;17.77;11.48;;;18.90;99.90;;;19.17;81.01;101817.31;5115070;28;20051;-67
2021/06/12 03:19:47;;;;;;;16.35;10.65;;;18.90;99.90;;;18.30;81.18;101716.59;5114949;28;20104;-66
2021/06/12 03:22:15;;;;;;;16.92;11.90;;;18.70;99.90;;;18.89;81.71;101817.97;5115068;28;20150;-66
2021/06/12 03:24:45;;;;;;;15.80;11.50;;;18.60;99.90;;;18.81;82.43;101811.88;5115017;28;20040;-67
2021/06/12 03:27:14;;;;;;;17.48;11.77;;;18.50;99.90;;;18.91;81.98;101816.13;5114963;28;20093;-67
2021/06/12 03:29:43;;;;;;;16.67;11.07;;;18.60;99.90;;;18.92;81.64;101812.53;5114484;28;20767;-66
2021/06/12 03:32:11;;;;;;;16.60;10.93;;;18.60;99.90;;;18.88;81.96;101824.25;5114421;28;20085;-66
2021/06/12 03:34:40;;;;;;;18.25;10.80;;;18.60;99.90;;;18.80;82.15;101812.81;5114737;28;20043;-67
2021/06/12 03:37:08;;;;;;;18.15;10.23;;;18.60;99.90;;;18.81;82.55;101829.81;5114451;28;20168;-67
2021/06/12 03:39:36;;;;;;;16.73;10.45;;;18.60;99.90;;;18.84;81.93;101827.94;5114285;28;20089;-67
2021/06/12 03:42:07;;;;;;;14.88;10.30;;;18.60;99.90;;;18.81;82.10;101836.03;5096225;28;20051;-66
2021/06/12 03:44:37;;;;;;;17.02;10.35;;;18.50;99.90;;;18.89;81.70;101839.41;5114616;28;20048;-67
2021/06/12 03:47:08;;;;;;;17.15;10.18;;;18.60;99.90;;;18.95;81.29;101837.53;5114113;28;20417;-66
2021/06/12 03:49:37;;;;;;;18.83;10.82;;;18.60;99.90;;;18.80;81.01;101822.66;5114135;28;20044;-66
2021/06/12 03:52:06;;;;;;;16.80;10.20;;;18.60;99.90;;;18.86;81.11;101842.19;5114371;28;20073;-66
2021/06/12 03:54:37;;;;;;;20.15;10.18;;;18.50;99.90;;;18.91;80.88;101844.75;5114385;28;20527;-66
2021/06/12 03:57:07;;;;;;;17.70;10.00;;;18.60;99.90;;;18.82;80.48;101837.81;5114086;28;20071;-66
2021/06/12 03:59:35;;;;;;;15.50;9.98;;;18.50;99.90;;;18.80;80.05;101849.47;5114138;28;20077;-66
2021/06/12 04:02:04;;;;;;;11.77;8.63;;;18.50;99.90;;;18.79;79.52;101847.72;5114130;28;20027;-66
2021/06/12 04:04:32;;;;;;;14.20;9.20;;;18.50;99.90;;;18.59;80.08;101860.66;5114057;28;20083;-67
2021/06/12 04:07:00;;;;;;;17.48;9.35;;;18.40;99.90;;;18.71;79.52;101860.41;5114152;28;20071;-66
2021/06/12 04:09:28;;;;;;;15.35;8.32;;;18.40;99.90;;;18.61;80.48;101869.56;5113788;28;20135;-67
2021/06/12 04:11:56;;;;;;;14.88;9.10;;;18.30;99.90;;;18.57;80.08;101855.34;5113487;28;20064;-66
2021/06/12 04:14:26;;;;;;;17.02;8.70;;;18.30;99.90;;;18.63;80.43;101852.53;5113831;28;20086;-66
2021/06/12 04:16:54;;;;;;;17.25;8.98;;;18.30;99.90;;;18.37;80.08;101836.06;5113503;28;20394;-66
2021/06/12 04:19:22;;;;;;;16.05;8.70;;;18.30;99.90;;;17.89;80.40;101751.38;5113470;28;20075;-66
2021/06/12 04:21:50;;;;;;;16.27;8.95;;;18.20;99.90;;;18.55;80.10;101853.59;5114041;28;20071;-66
2021/06/12 04:24:19;;;;;;;16.42;8.50;;;18.20;99.90;;;18.57;79.66;101846.41;5095391;28;20044;-66
2021/06/12 04:26:46;;;;;;;16.17;8.52;;;18.20;99.90;;;18.47;79.69;101851.09;5113335;28;20047;-66
2021/06/12 04:29:14;;;;;;;12.35;8.57;;;18.20;99.90;;;18.46;79.60;101849.34;5113628;28;20047;-67
2021/06/12 04:31:45;;;;;;;12.48;8.38;;;18.20;99.90;;;18.41;78.66;101829.75;5095333;28;20062;-66
2021/06/12 04:34:13;;;;;;;18.30;9.18;;;18.30;99.90;;;18.05;78.85;101747.50;5095310;28;20091;-66
2021/06/12 04:36:41;;;;;;;12.52;7.78;;;18.30;99.90;;;18.65;78.01;101858.75;5113601;28;20036;-66
2021/06/12 04:39:09;;;;;;;13.02;7.88;;;18.40;99.90;;;18.72;77.32;101864.84;5113029;28;20043;-66
2021/06/12 04:41:38;;;;;;;13.25;7.70;;;18.40;99.90;;;18.71;76.96;101866.66;5113160;28;20501;-66
2021/06/12 04:44:06;;;;;;;14.82;7.82;;;18.40;99.90;;;18.61;76.63;101854.38;5113402;28;20124;-67
2021/06/12 04:46:34;;;;;;;12.13;8.05;;;18.40;99.90;;;18.68;76.42;101855.09;5113348;28;20058;-66
2021/06/12 04:49:04;;;;;;;10.52;7.03;;;18.40;99.90;;;18.78;76.06;101852.19;5113243;28;20093;-66
2021/06/12 04:51:31;;;;;;;20.08;9.50;;;18.40;99.90;;;18.65;76.37;101850.69;5094857;28;20092;-67
2021/06/12 04:53:59;;;;;;;15.52;8.48;;;18.40;99.90;;;18.62;75.58;101860.63;5113240;28;20040;-66
2021/06/12 04:56:27;;;;;;;14.13;6.75;;;18.30;99.90;;;18.74;75.27;101845.13;5094301;28;20067;-66
2021/06/12 04:58:55;;;;;;;11.68;7.25;;;18.40;99.90;;;18.76;74.74;101863.84;5112977;28;20096;-66
2021/06/12 05:01:23;;;;;;;14.68;7.78;;;18.50;99.90;;;18.63;75.04;101865.03;5112782;28;20092;-66
2021/06/12 05:03:51;;;;;;;11.90;7.22;;;18.40;99.90;;;18.62;75.70;101874.88;5094789;28;20050;-67
2021/06/12 05:06:21;;;;;;;13.23;7.43;;;18.30;99.90;;;18.64;75.40;101886.44;5112956;28;20048;-67
2021/06/12 05:08:49;;;;;;;14.15;7.20;;;18.40;99.90;;;18.79;74.50;101885.25;5113046;28;20039;-66
2021/06/12 05:11:17;;;;;;;16.58;7.40;;;18.50;99.90;;;18.72;73.43;101889.84;5112839;28;20090;-66
2021/06/12 05:13:45;;;;;;;12.27;6.65;;;18.40;99.90;;;18.53;73.18;101866.16;5112765;28;20054;-66
2021/06/12 05:16:14;;;;;;;12.18;7.00;;;18.40;99.90;;;18.60;72.61;101879.38;5112466;28;20120;-66
2021/06/12 05:18:44;;;;;;;11.90;6.72;;;18.40;99.90;;;18.72;72.83;101862.16;5112389;28;20469;-66
2021/06/12 05:21:14;;;;;;;14.73;7.13;;;18.40;99.90;;;18.82;72.78;101869.97;5112416;28;20130;-66
2021/06/12 05:23:44;;;;;;;10.10;6.45;;;18.50;99.90;;;18.88;72.06;101864.47;5112140;28;20039;-66
2021/06/12 05:26:14;;;;;;;13.03;6.73;;;18.60;99.90;;;18.93;71.67;101872.41;5112530;28;20047;-66
2021/06/12 05:28:42;;;;;;;13.45;6.50;;;18.60;99.90;;;18.86;70.65;101878.81;5112704;28;20055;-66
2021/06/12 05:31:10;;;;;;;11.00;5.95;;;18.60;99.90;;;19.06;70.40;101890.00;5112395;28;20035;-66
2021/06/12 05:33:38;;;;;;;10.98;6.10;;;18.70;99.90;;;18.85;70.32;101894.03;5112639;28;20036;-66
2021/06/12 05:36:07;;;;;;;9.38;6.07;;;18.60;99.90;;;18.89;69.29;101903.78;5112658;28;20052;-66
2021/06/12 05:38:35;;;;;;;13.43;6.20;;;18.60;99.90;;;18.13;68.75;101787.50;5094311;28;20497;-66
2021/06/12 05:41:05;;;;;;;10.75;6.18;;;18.60;99.90;;;18.81;68.28;101907.56;5112523;28;20043;-66
2021/06/12 05:43:33;;;;;;;10.80;6.45;;;18.50;99.90;;;18.88;68.34;101907.38;5112467;28;20069;-66
2021/06/12 05:46:02;;;;;;;20.00;6.80;;;18.50;99.90;;;18.93;67.44;101905.47;5112402;28;20051;-66
2021/06/12 05:48:30;;;;;;;13.43;7.88;;;18.60;99.90;;;18.95;67.48;101907.25;5112260;28;20143;-67
2021/06/12 05:50:58;;;;;;;13.30;7.25;;;18.60;99.90;;;18.98;68.21;101926.84;5112465;28;20423;-67
2021/06/12 05:53:26;;;;;;;16.15;7.45;;;18.60;99.90;;;19.08;67.24;101919.47;5094419;28;20125;-67
2021/06/12 05:55:54;;;;;;;12.05;7.15;;;18.80;99.90;;;19.08;67.18;101917.66;5112078;28;20060;-67
2021/06/12 05:58:23;;;;;;;12.73;6.82;;;18.70;99.90;;;19.20;66.51;101913.81;5112194;28;20039;-67
2021/06/12 06:00:51;;;;;;;14.43;7.10;;;18.90;99.90;;;19.15;66.02;101913.91;5112255;28;20040;-67
2021/06/12 06:03:20;;;;;;;11.93;5.85;;;18.90;99.90;;;19.15;66.94;101915.72;5112380;28;20058;-67
2021/06/12 06:05:48;;;;;;;7.88;5.90;;;18.90;99.90;;;19.10;66.25;101923.00;5112385;28;20101;-67
2021/06/12 06:08:16;;;;;;;9.55;6.20;;;18.80;99.90;;;19.10;66.54;101920.31;5094013;28;20054;-67
2021/06/12 06:10:44;;;;;;;12.38;6.80;;;18.80;99.90;;;19.13;66.57;101913.06;5112186;28;20112;-67
2021/06/12 06:13:12;;;;;;;9.88;5.97;;;18.80;99.90;;;19.01;65.89;101913.34;5111990;28;20108;-67
2021/06/12 06:15:42;;;;;;;11.15;6.15;;;18.70;99.90;;;19.06;65.36;101926.66;5094105;28;20488;-67
2021/06/12 06:18:09;;;;;;;11.50;5.50;;;18.70;99.90;;;18.99;65.02;101879.44;5112636;28;20365;-67
2021/06/12 06:20:37;;;;;;;11.82;6.28;;;18.90;99.90;;;19.39;65.04;101933.97;5112123;28;20144;-67
2021/06/12 06:23:05;;;;;;;13.25;6.10;;;19.10;99.90;;;19.40;64.88;101933.03;5112118;28;20055;-67
2021/06/12 06:25:33;;;;;;;11.43;5.97;;;19.20;99.90;;;19.20;64.72;101930.78;5111930;28;20050;-67
2021/06/12 06:28:01;;;;;;;8.15;5.15;;;19.00;99.90;;;19.33;64.19;101937.69;5111757;28;20404;-67
2021/06/12 06:30:30;;;;;;;10.63;5.88;;;19.10;99.90;;;19.39;65.70;101948.28;5111976;28;20035;-67
2021/06/12 06:32:59;;;;;;;9.27;5.75;;;19.10;99.90;;;19.40;64.59;101944.66;5112098;28;20453;-67
2021/06/12 06:35:28;;;;;;;13.48;6.07;;;19.10;99.90;;;19.46;65.52;101940.94;5114560;28;20055;-67
2021/06/12 06:37:56;;;;;;;12.30;5.70;;;19.10;99.90;;;19.57;64.97;101939.78;5115866;28;20059;-67
2021/06/12 06:40:25;;;;;;;11.13;5.68;;;19.20;99.90;;;19.51;65.09;101941.75;5115674;28;20089;-67
2021/06/12 06:42:53;;;;;;;13.98;6.55;;;19.30;99.90;;;19.40;65.06;101941.97;5115717;28;20059;-67
2021/06/12 06:45:22;;;;;;;12.02;6.00;;;19.10;99.90;;;19.36;64.69;101944.75;5097453;28;20060;-67
2021/06/12 06:47:50;;;;;;;10.27;5.97;;;19.10;99.90;;;19.38;65.15;101940.25;5115643;28;20048;-67
2021/06/12 06:50:20;;;;;;;12.07;5.70;;;19.10;99.90;;;19.54;65.15;101949.72;5115180;28;20109;-67
2021/06/12 06:52:49;;;;;;;10.90;5.40;;;19.20;99.90;;;19.26;64.32;101929.78;5115364;28;20142;-67
2021/06/12 06:55:18;;;;;;;10.00;5.68;;;19.10;99.90;;;19.40;64.60;101952.72;5115462;28;20075;-66
2021/06/12 06:57:46;;;;;;;13.77;6.38;;;19.10;99.90;;;19.31;64.01;101960.94;5115382;28;20556;-67
2021/06/12 07:00:16;;;;;;;12.73;5.95;;;19.10;99.90;;;19.11;64.69;101939.03;5114935;28;20042;-67
2021/06/12 07:02:45;;;;;;;15.48;6.75;;;19.00;99.90;;;19.21;64.86;101963.88;5115195;28;20043;-67
2021/06/12 07:05:13;;;;;;;13.88;6.25;;;19.00;99.90;;;19.05;65.09;101973.19;5115263;28;20356;-67
2021/06/12 07:07:43;;;;;;;10.15;5.38;;;18.90;99.90;;;19.19;65.40;101981.78;5115239;28;20044;-67
2021/06/12 07:10:11;;;;;;;13.60;5.88;;;18.90;99.90;;;18.91;64.40;101955.56;5115153;28;20481;-67
2021/06/12 07:12:40;;;;;;;13.25;6.00;;;18.80;99.90;;;19.00;64.44;101978.63;5096761;28;20044;-67
2021/06/12 07:15:10;;;;;;;14.20;6.22;;;18.80;99.90;;;18.98;65.97;101990.31;5114952;28;20051;-67
2021/06/12 07:17:39;;;;;;;13.93;5.88;;;18.70;99.90;;;19.09;65.22;101982.91;5115096;28;20047;-67
2021/06/12 07:20:09;;;;;;;14.38;6.85;;;18.70;99.90;;;19.20;65.35;101981.75;5096550;28;20075;-68
2021/06/12 07:22:37;;;;;;;10.57;6.50;;;18.90;99.90;;;19.34;64.02;101994.91;5115414;28;20159;-67
2021/06/12 07:25:08;;;;;;;12.88;6.00;;;19.00;99.90;;;19.60;63.13;101987.16;5096716;28;20392;-68
2021/06/12 07:27:36;;;;;;;16.77;6.63;;;19.30;99.90;;;18.94;62.47;101898.31;5115006;28;20039;-67
2021/06/12 07:30:10;;;;;;;11.45;5.78;;;19.30;99.90;;;19.81;62.09;101992.00;5114659;28;20051;-67
2021/06/12 07:32:38;;;;;;;12.13;5.63;;;19.50;99.90;;;19.95;61.50;101995.22;5114911;28;20079;-67
2021/06/12 07:35:06;;;;;;;13.93;5.80;;;19.70;99.90;;;20.05;61.14;101999.47;5114842;28;20069;-67
2021/06/12 07:37:34;;;;;;;14.65;5.75;;;19.80;99.90;;;19.93;60.42;102005.13;5114715;28;20131;-67
2021/06/12 07:40:03;;;;;;;10.93;5.30;;;19.80;99.90;;;19.79;61.19;102002.78;5096306;28;20048;-67
2021/06/12 07:42:32;;;;;;;13.30;5.88;;;19.70;99.90;;;19.65;61.08;101999.53;5114657;28;20058;-67
2021/06/12 07:45:01;;;;;;;13.75;5.90;;;19.50;99.90;;;19.78;61.46;102002.81;5114611;28;20051;-67
2021/06/12 07:47:30;;;;;;;12.65;5.78;;;19.60;99.90;;;19.73;61.91;102005.63;5113625;28;20074;-67
2021/06/12 07:49:59;;;;;;;13.07;6.25;;;19.50;99.90;;;19.64;62.11;102002.25;5114752;28;20565;-66
2021/06/12 07:52:27;;;;;;;12.55;5.85;;;19.40;99.90;;;18.75;62.00;101902.31;5114161;28;20496;-66
2021/06/12 07:54:54;;;;;;;14.13;6.43;;;19.20;99.90;;;19.19;61.88;102009.50;5114223;28;20054;-66
2021/06/12 07:57:23;;;;;;;10.73;5.65;;;19.00;99.90;;;19.23;62.94;102007.63;5114161;28;20056;-66
2021/06/12 07:59:52;;;;;;;13.65;5.93;;;19.00;99.90;;;19.24;62.70;101996.88;5095512;28;20040;-66
2021/06/12 08:02:20;;;;;;;15.45;5.80;;;18.90;99.90;;;19.32;61.99;101994.94;5113950;28;20492;-66
2021/06/12 08:04:48;;;;;;;18.05;6.88;;;19.10;99.90;;;19.34;62.47;101998.47;5114138;28;20043;-66
2021/06/12 08:07:17;;;;;;;17.23;6.53;;;19.10;99.90;;;19.33;62.42;102004.78;5095810;28;20062;-66
2021/06/12 08:09:45;;;;;;;11.45;6.20;;;19.10;99.90;;;19.37;62.41;102010.94;5114009;28;20089;-66
2021/06/12 08:12:14;;;;;;;12.60;6.50;;;19.10;99.90;;;19.36;62.23;102011.84;5113999;28;20073;-66
2021/06/12 08:14:42;;;;;;;17.73;6.30;;;19.10;99.90;;;19.30;62.31;102015.53;5113878;28;20389;-66
2021/06/12 08:17:11;;;;;;;13.18;6.15;;;19.10;99.90;;;19.23;62.04;102007.63;5095612;28;20047;-66
2021/06/12 08:19:39;;;;;;;11.40;6.00;;;19.00;99.90;;;19.26;61.00;101983.44;5095453;28;20492;-66
2021/06/12 08:22:08;;;;;;;13.57;5.65;;;19.20;99.90;;;19.56;61.74;102020.34;5113433;28;20050;-66
2021/06/12 08:24:36;;;;;;;10.60;6.18;;;19.30;99.90;;;19.79;61.12;102029.63;5114010;28;20150;-66
2021/06/12 08:27:05;;;;;;;11.80;5.95;;;19.50;99.90;;;19.99;60.78;102034.53;5113443;28;20460;-66
2021/06/12 08:29:33;;;;;;;14.70;6.05;;;19.70;99.90;;;20.01;60.95;102039.84;5114082;28;20038;-66
2021/06/12 08:32:01;;;;;;;13.55;6.05;;;19.70;99.90;;;20.04;60.74;102037.97;5113575;28;20043;-66
2021/06/12 08:34:30;;;;;;;14.07;6.78;;;19.70;99.90;;;20.07;60.85;102043.28;5113950;28;20058;-66
2021/06/12 08:37:00;;;;;;;12.55;6.53;;;19.90;99.90;;;19.92;60.00;102040.94;5113544;28;20066;-66
2021/06/12 08:39:28;;;;;;;17.55;6.07;;;19.80;99.90;;;20.06;60.60;102046.00;5113200;28;20501;-67
2021/06/12 08:41:56;;;;;;;11.15;5.88;;;19.80;99.90;;;20.10;59.48;102043.19;5113359;28;20040;-66
2021/06/12 08:44:26;;;;;;;14.07;5.85;;;19.90;99.90;;;20.14;59.91;102050.28;5113364;28;20050;-66
2021/06/12 08:46:55;;;;;;;12.30;5.83;;;19.90;99.90;;;20.15;59.70;102041.28;5113115;28;20105;-67
2021/06/12 08:49:23;;;;;;;12.40;5.93;;;19.90;99.90;;;19.97;59.43;102019.38;5095082;28;20039;-66
2021/06/12 08:51:54;;;;;;;11.18;5.65;;;19.90;99.90;;;20.15;60.29;102056.53;5094946;28;20437;-69
2021/06/12 08:54:26;;;;;;;8.87;5.27;;;19.90;99.90;;;20.18;59.87;102051.06;5112774;28;20062;-68
2021/06/12 08:56:55;;;;;;;13.48;5.75;;;19.90;99.90;;;20.29;58.94;102043.66;5112917;28;20117;-67
2021/06/12 08:59:24;;;;;;;13.93;5.60;;;20.00;99.90;;;20.31;58.96;102039.13;5113184;28;20040;-67
2021/06/12 09:01:53;;;;;;;13.57;6.00;;;20.10;99.90;;;20.30;58.46;102040.06;5094638;28;20047;-67
2021/06/12 09:04:31;;;;;;;13.75;6.05;;;20.10;99.90;;;20.42;59.92;102056.72;5094515;28;20415;-68
2021/06/12 09:07:20;;;;;;;10.93;5.65;;;20.20;99.90;;;20.21;59.17;102059.97;5113182;28;20050;-67
2021/06/12 09:09:50;;;;;;;12.00;6.22;;;20.00;99.90;;;20.58;58.92;102066.16;5094757;28;20063;-67
2021/06/12 09:12:19;;;;;;;10.80;5.70;;;20.30;99.90;;;20.54;59.08;102064.47;5112763;28;20089;-67
2021/06/12 09:15:11;;;;;;;14.25;5.85;;;20.30;99.90;;;20.51;59.71;102042.19;5112922;28;20061;-67
2021/06/12 09:17:41;;;;;;;16.30;7.00;;;20.30;99.90;;;20.48;59.95;102061.94;5112949;28;20450;-67
2021/06/12 09:20:11;;;;;;;11.60;6.88;;;20.20;99.90;;;20.42;58.93;102053.19;5112550;28;20463;-67
2021/06/12 09:22:40;;;;;;;15.13;6.03;;;20.20;99.90;;;20.21;60.69;102076.09;5112644;28;20044;-68
2021/06/12 09:25:10;;;;;;;14.90;6.75;;;20.00;99.90;;;20.24;61.13;102086.78;5094286;28;20104;-66
2021/06/12 09:27:38;;;;;;;15.25;6.95;;;20.00;99.90;;;20.21;60.80;102084.16;5112627;28;20423;-68
2021/06/12 09:30:13;;;;;;;11.15;6.30;;;19.90;99.90;;;20.36;59.80;102080.22;5093537;28;20100;-66
2021/06/12 09:32:46;;;;;;;16.30;6.10;;;20.10;99.90;;;20.29;59.65;102079.47;5112525;28;20063;-66
2021/06/12 09:35:14;;;;;;;11.68;5.78;;;20.00;99.90;;;20.39;60.52;102086.38;5113002;28;20092;-66
2021/06/12 09:37:45;;;;;;;14.73;6.75;;;20.20;99.90;;;20.26;61.07;102094.81;5112637;28;20097;-66
2021/06/12 09:40:14;;;;;;;;;;;20.10;99.90;;;20.32;59.44;102106.28;5112880;28;20062;-66
2021/06/12 09:42:46;;;;;;;11.23;6.50;;;20.10;99.90;;;20.24;59.77;102075.13;5112422;28;20319;-66
2021/06/12 09:45:16;;;;;;;14.35;6.55;;;20.10;99.90;;;20.36;60.36;102102.56;5112340;28;20108;-66
2021/06/12 09:47:45;;;;;;;12.60;6.60;;;20.10;99.90;;;20.27;60.02;102102.81;5112406;28;20441;-66
2021/06/12 09:50:16;;;;;;;15.63;6.90;;;20.10;99.90;;;20.34;60.65;102108.94;5112228;28;20042;-66
2021/06/12 09:52:49;;;;;;;16.33;7.03;;;20.10;99.90;;;20.07;60.83;102105.09;5094246;28;20055;-66
2021/06/12 09:55:23;;;;;;;12.80;6.05;;;19.90;99.90;;;20.14;61.12;102103.13;5112261;28;20039;-66
2021/06/12 09:57:51;;;;;;;16.70;6.93;;;19.90;99.90;;;20.18;61.54;102113.81;5111997;28;20504;-66
2021/06/12 10:00:30;;;;;;;14.65;6.53;;;19.90;99.90;;;20.43;60.97;102124.81;5112303;28;20469;-66
2021/06/12 10:02:59;;;;;;;11.60;5.85;;;20.10;99.90;;;20.37;60.23;102107.03;5112638;28;20047;-66
2021/06/12 10:05:27;;;;;;;16.73;6.28;;;20.20;99.90;;;20.51;60.27;102110.28;5112137;28;20059;-66
2021/06/12 10:07:57;;;;;;;15.48;6.85;;;20.20;99.90;;;20.69;60.36;102117.00;5112376;28;20048;-66
2021/06/12 10:10:26;;;;;;;16.08;6.55;;;20.40;99.90;;;20.95;59.14;102127.03;5096566;28;20740;-66
2021/06/12 10:12:54;;;;;;;13.30;6.45;;;20.70;99.90;;;20.97;59.40;102133.25;5097834;28;20104;-66
2021/06/12 10:15:23;;;;;;;13.43;6.05;;;20.70;99.90;;;20.95;59.27;102133.31;5116097;28;20049;-66